Time;durP1;ratioP1;P1;durP2;ratioP2;P2;SDS_P1;SDS_P2;PMS_P1;PMS_P2;Temp;Humidity;BMP_temperature;BMP_pressure;BME280_temperature;BME280_humidity;BME280_pressure;Samples;Min_cycle;Max_cycle;Signal;HPM_P1;HPM_P2
2024/01/22 00:00:40;;;;;;;0.83;0.83;;;-0.20;1.00;;;;;;5058656;28;20243;-82
2024/01/22 00:03:05;;;;;;;0.80;0.80;;;-0.30;1.00;;;;;;5059142;28;20237;-82
2024/01/22 00:05:31;;;;;;;0.80;0.80;;;-0.30;1.00;;;;;;5058742;28;20667;-82
2024/01/22 00:07:56;;;;;;;0.87;0.87;;;-0.30;1.00;;;;;;5058069;28;20195;-83
2024/01/22 00:10:22;;;;;;;0.90;0.90;;;-0.30;1.00;;;;;;5058369;28;20184;-82
2024/01/22 00:12:47;;;;;;;0.90;0.90;;;-0.30;8.10;;;;;;5057236;28;20252;-82
2024/01/22 00:15:13;;;;;;;1.00;1.00;;;-0.30;94.30;;;;;;5058864;28;20186;-82
2024/01/22 00:17:39;;;;;;;0.80;0.80;;;-0.30;92.00;;;;;;5059432;28;20203;-82
2024/01/22 00:20:05;;;;;;;0.80;0.80;;;-0.20;98.90;;;;;;5059645;28;20175;-81
2024/01/22 00:22:30;;;;;;;0.80;0.80;;;-0.20;1.00;;;;;;5061455;28;20206;-81
2024/01/22 00:24:56;;;;;;;0.90;0.90;;;-0.20;1.00;;;;;;5058861;28;20178;-82
2024/01/22 00:27:21;;;;;;;0.90;0.90;;;-0.30;99.90;;;;;;5050279;28;20257;-82
2024/01/22 00:29:47;;;;;;;0.80;0.80;;;-0.30;99.90;;;;;;5057759;28;20183;-82
2024/01/22 00:32:13;;;;;;;0.90;0.90;;;-0.40;99.90;;;;;;5060483;28;20224;-80
2024/01/22 00:34:38;;;;;;;0.90;0.90;;;-0.40;99.90;;;;;;5065660;28;20186;-80
2024/01/22 00:37:04;;;;;;;0.90;0.90;;;-0.50;99.90;;;;;;5070455;28;20203;-81
2024/01/22 00:39:29;;;;;;;0.87;0.87;;;-0.50;1.00;;;;;;5070429;28;20221;-80
2024/01/22 00:41:56;;;;;;;0.90;0.90;;;-0.50;1.00;;;;;;5071168;28;20275;-79
2024/01/22 00:44:22;;;;;;;0.80;0.80;;;-0.50;1.00;;;;;;5069399;28;20637;-80
2024/01/22 00:46:48;;;;;;;0.90;0.90;;;-0.50;1.00;;;;;;5068081;28;20199;-81
2024/01/22 00:49:13;;;;;;;0.90;0.90;;;-0.60;1.00;;;;;;5069955;28;20179;-80
2024/01/22 00:51:39;;;;;;;0.90;0.90;;;-0.60;1.00;;;;;;5073909;28;20171;-79
2024/01/22 00:54:05;;;;;;;0.90;0.90;;;-0.60;1.00;;;;;;5072855;28;20182;-80
2024/01/22 00:56:30;;;;;;;0.90;0.90;;;-0.60;1.00;;;;;;5069481;28;20365;-80
2024/01/22 00:58:56;;;;;;;0.90;0.90;;;-0.70;1.00;;;;;;5061192;28;20213;-81
2024/01/22 01:01:22;;;;;;;0.90;0.90;;;-0.70;1.00;;;;;;5056609;28;20203;-82
2024/01/22 01:03:48;;;;;;;0.90;0.90;;;-0.70;1.00;;;;;;5059745;28;20209;-82
2024/01/22 01:06:16;;;;;;;0.80;0.80;;;-0.70;1.00;;;;;;5072681;28;20209;-79
2024/01/22 01:08:43;;;;;;;0.80;0.80;;;-0.70;1.00;;;;;;5075717;28;20182;-80
2024/01/22 01:11:09;;;;;;;0.90;0.90;;;-0.70;1.00;;;;;;5076026;28;20178;-78
2024/01/22 01:13:35;;;;;;;0.80;0.80;;;-1.30;1.00;;;;;;5057425;28;20570;-80
2024/01/22 01:16:01;;;;;;;0.83;0.83;;;-0.80;1.00;;;;;;5053432;28;20260;-82
2024/01/22 01:18:27;;;;;;;0.90;0.90;;;-0.80;9.10;;;;;;5054636;28;20198;-80
2024/01/22 01:20:52;;;;;;;0.90;0.90;;;-0.80;99.90;;;;;;5057061;28;20195;-80
2024/01/22 01:23:18;;;;;;;0.87;0.87;;;-0.90;99.90;;;;;;5059044;28;20278;-81
2024/01/22 01:25:43;;;;;;;0.97;0.97;;;-0.90;99.90;;;;;;5054106;28;20171;-80
2024/01/22 01:28:09;;;;;;;0.90;0.90;;;-0.90;99.90;;;;;;5054035;28;20189;-80
2024/01/22 01:30:34;;;;;;;0.80;0.80;;;-0.90;99.90;;;;;;5069716;28;20189;-81
2024/01/22 01:33:00;;;;;;;0.80;0.80;;;-1.00;99.90;;;;;;5075019;28;20197;-80
2024/01/22 01:35:25;;;;;;;0.90;0.90;;;-1.00;99.90;;;;;;5075350;28;20163;-79
2024/01/22 01:37:52;;;;;;;0.90;0.90;;;-1.00;99.90;;;;;;5074952;28;20229;-79
2024/01/22 01:40:17;;;;;;;1.00;1.00;;;-1.10;1.00;;;;;;5074629;28;20203;-78
2024/01/22 01:42:43;;;;;;;1.00;1.00;;;-1.10;1.00;;;;;;5072558;28;20227;-82
2024/01/22 01:45:15;;;;;;;1.00;1.00;;;-1.20;99.90;;;;;;5059620;28;20179;-82
2024/01/22 01:47:47;;;;;;;0.90;0.90;;;-1.30;99.90;;;;;;5040482;28;20891;-81
2024/01/22 01:50:15;;;;;;;1.00;1.00;;;-1.30;99.90;;;;;;5056589;28;20214;-81
2024/01/22 01:52:41;;;;;;;0.90;0.90;;;-1.40;1.00;;;;;;5065353;28;20258;-82
2024/01/22 01:55:07;;;;;;;0.93;0.93;;;-1.40;1.00;;;;;;5060828;28;20187;-81
2024/01/22 01:57:38;;;;;;;0.83;0.83;;;-1.40;1.00;;;;;;5041667;28;20187;-81
2024/01/22 02:00:07;;;;;;;1.00;1.00;;;-1.30;1.00;;;;;;5056222;28;20179;-80
2024/01/22 02:02:33;;;;;;;0.90;0.90;;;-1.40;99.90;;;;;;5055715;28;20211;-82
2024/01/22 02:05:02;;;;;;;0.80;0.80;;;-1.30;99.90;;;;;;5058432;28;20186;-81
2024/01/22 02:07:27;;;;;;;0.80;0.80;;;-1.30;99.90;;;;;;5059278;28;20210;-80
2024/01/22 02:09:55;;;;;;;0.90;0.90;;;-1.30;99.90;;;;;;5063697;28;20198;-82
2024/01/22 02:12:21;;;;;;;0.93;0.93;;;-1.30;99.90;;;;;;5059868;28;20198;-81
2024/01/22 02:14:47;;;;;;;0.90;0.90;;;-1.40;99.90;;;;;;5059992;28;20181;-81
2024/01/22 02:17:14;;;;;;;0.90;0.90;;;-1.30;99.90;;;;;;5060002;28;20203;-82
2024/01/22 02:19:40;;;;;;;0.80;0.80;;;-1.30;99.90;;;;;;5061101;28;20171;-80
2024/01/22 02:22:06;;;;;;;0.90;0.90;;;-1.30;99.90;;;;;;5060276;28;20203;-81
2024/01/22 02:24:32;;;;;;;0.80;0.80;;;-1.30;99.90;;;;;;5060226;28;20192;-81
2024/01/22 02:26:58;;;;;;;0.90;0.90;;;-1.30;59.60;;;;;;5060750;28;20199;-82
2024/01/22 02:29:23;;;;;;;0.90;0.90;;;-1.30;92.90;;;;;;5073919;28;20171;-79
2024/01/22 02:31:50;;;;;;;0.80;0.80;;;-1.30;99.90;;;;;;5078039;28;20229;-78
2024/01/22 02:34:16;;;;;;;0.90;0.90;;;-1.20;86.80;;;;;;5074384;28;20172;-81
2024/01/22 02:36:42;;;;;;;0.87;0.87;;;-1.20;99.90;;;;;;5056069;28;20934;-80
2024/01/22 02:39:07;;;;;;;0.90;0.90;;;-1.20;41.40;;;;;;5057163;28;20190;-81
2024/01/22 02:41:33;;;;;;;0.90;0.90;;;-1.10;99.90;;;;;;5043386;28;20587;-82
2024/01/22 02:43:59;;;;;;;1.00;1.00;;;-1.10;99.90;;;;;;5058778;28;20257;-82
2024/01/22 02:46:25;;;;;;;0.90;0.90;;;-1.20;94.20;;;;;;5057956;28;20242;-81
2024/01/22 02:48:51;;;;;;;0.90;0.90;;;-1.10;99.90;;;;;;5059341;28;20171;-81
2024/01/22 02:51:17;;;;;;;0.80;0.80;;;-1.10;99.90;;;;;;5062831;28;20531;-81
2024/01/22 02:53:42;;;;;;;0.90;0.90;;;-1.20;99.90;;;;;;5058707;28;20682;-82
2024/01/22 02:56:08;;;;;;;0.90;0.90;;;-1.20;99.90;;;;;;5059060;28;20187;-79
2024/01/22 02:58:33;;;;;;;0.87;0.87;;;-1.20;99.90;;;;;;5058943;28;20262;-81
2024/01/22 03:00:59;;;;;;;0.90;0.90;;;-1.10;99.90;;;;;;5058837;28;20213;-81
2024/01/22 03:03:25;;;;;;;0.90;0.90;;;-1.10;99.90;;;;;;5040253;28;20263;-81
2024/01/22 03:05:50;;;;;;;0.80;0.80;;;-1.10;99.90;;;;;;5040232;28;20227;-81
2024/01/22 03:08:16;;;;;;;0.80;0.80;;;-1.10;77.60;;;;;;5058454;28;20179;-81
2024/01/22 03:10:41;;;;;;;0.90;0.90;;;-1.10;99.90;;;;;;5059053;28;20183;-81
2024/01/22 03:13:07;;;;;;;1.00;1.00;;;-1.10;99.90;;;;;;5057543;28;20176;-81
2024/01/22 03:15:33;;;;;;;0.90;0.90;;;-1.20;99.90;;;;;;5058758;28;20550;-81
2024/01/22 03:17:58;;;;;;;0.90;0.90;;;-1.20;99.90;;;;;;5060082;28;20214;-79
2024/01/22 03:20:24;;;;;;;0.90;0.90;;;-1.20;99.90;;;;;;5063248;28;20183;-78
2024/01/22 03:22:49;;;;;;;0.90;0.90;;;-1.30;99.90;;;;;;5065762;28;20233;-78
2024/01/22 03:25:15;;;;;;;0.90;0.90;;;-1.30;99.90;;;;;;5071138;28;20270;-82
2024/01/22 03:27:41;;;;;;;0.80;0.80;;;-1.40;99.90;;;;;;5058006;28;20221;-81
2024/01/22 03:30:07;;;;;;;0.90;0.90;;;-1.40;1.00;;;;;;5057346;28;20259;-79
2024/01/22 03:32:33;;;;;;;0.90;0.90;;;-1.40;1.00;;;;;;5057613;28;20175;-81
2024/01/22 03:34:58;;;;;;;0.90;0.90;;;-1.30;1.00;;;;;;5057883;28;20178;-80
2024/01/22 03:37:24;;;;;;;0.93;0.93;;;-1.30;1.00;;;;;;5058584;28;20187;-81
2024/01/22 03:39:50;;;;;;;0.90;0.90;;;-1.30;1.00;;;;;;5056378;28;20195;-81
2024/01/22 03:42:15;;;;;;;0.90;0.90;;;-1.20;1.00;;;;;;5057316;28;20261;-81
2024/01/22 03:44:41;;;;;;;0.90;0.90;;;-1.10;1.00;;;;;;5057278;28;20176;-81
2024/01/22 03:47:07;;;;;;;0.90;0.90;;;-1.00;1.00;;;;;;5057623;28;20281;-82
2024/01/22 03:49:32;;;;;;;0.90;0.90;;;-1.00;99.90;;;;;;5062137;28;20207;-80
2024/01/22 03:51:58;;;;;;;0.90;0.90;;;-1.00;99.90;;;;;;5057922;28;20175;-81
2024/01/22 03:54:24;;;;;;;0.80;0.80;;;-1.00;99.90;;;;;;5058051;28;20462;-81
2024/01/22 03:56:50;;;;;;;1.00;1.00;;;-1.00;99.90;;;;;;5057534;28;20270;-81
2024/01/22 03:59:15;;;;;;;1.00;1.00;;;-0.90;99.90;;;;;;5058315;28;20250;-81
2024/01/22 04:01:41;;;;;;;0.80;0.80;;;-0.80;99.90;;;;;;5058813;28;20215;-81
2024/01/22 04:04:06;;;;;;;0.80;0.80;;;-0.80;99.90;;;;;;5058888;28;20176;-81
2024/01/22 04:06:33;;;;;;;0.80;0.80;;;-0.60;99.90;;;;;;5058720;28;20195;-81
2024/01/22 04:08:59;;;;;;;1.07;1.07;;;-0.70;99.90;;;;;;5058776;28;20171;-80
2024/01/22 04:11:24;;;;;;;0.90;0.90;;;-0.60;99.90;;;;;;5059151;28;20179;-81
2024/01/22 04:13:50;;;;;;;0.90;0.90;;;-0.60;99.90;;;;;;5058090;28;20202;-81
2024/01/22 04:16:15;;;;;;;0.80;0.80;;;-0.60;99.90;;;;;;5057781;28;20570;-81
2024/01/22 04:18:42;;;;;;;0.90;0.90;;;-0.60;99.90;;;;;;5040549;28;20171;-81
2024/01/22 04:21:08;;;;;;;0.90;0.90;;;-0.50;99.90;;;;;;5061758;28;20249;-82
2024/01/22 04:23:34;;;;;;;0.90;0.90;;;-0.50;99.90;;;;;;5058357;28;20174;-81
2024/01/22 04:26:01;;;;;;;0.80;0.80;;;-0.30;99.90;;;;;;5040116;28;20171;-81
2024/01/22 04:28:26;;;;;;;0.90;0.90;;;-0.20;99.90;;;;;;5058290;28;20287;-81
2024/01/22 04:30:52;;;;;;;0.90;0.90;;;0.00;99.90;;;;;;5059331;28;20187;-80
2024/01/22 04:33:18;;;;;;;0.80;0.80;;;0.10;99.90;;;;;;5065809;28;20213;-79
2024/01/22 04:35:43;;;;;;;0.90;0.90;;;0.20;99.90;;;;;;5068743;28;20202;-79
2024/01/22 04:38:09;;;;;;;0.80;0.80;;;0.20;99.90;;;;;;5068777;28;20182;-80
2024/01/22 04:40:35;;;;;;;0.87;0.87;;;0.10;1.00;;;;;;5069280;28;20217;-81
2024/01/22 04:43:00;;;;;;;0.90;0.90;;;-0.20;1.00;;;;;;5068102;28;20241;-80
2024/01/22 04:45:26;;;;;;;0.80;0.80;;;-0.20;72.30;;;;;;5068381;28;20183;-79
2024/01/22 04:47:52;;;;;;;0.90;0.90;;;-0.30;99.90;;;;;;5066936;28;20207;-81
2024/01/22 04:50:17;;;;;;;0.90;0.90;;;-0.20;99.90;;;;;;5044411;28;20206;-80
2024/01/22 04:52:43;;;;;;;0.90;0.90;;;-0.10;99.90;;;;;;5057757;28;20175;-81
2024/01/22 04:55:09;;;;;;;0.83;0.83;;;0.00;99.90;;;;;;5066669;28;20190;-82
2024/01/22 04:57:34;;;;;;;0.90;0.90;;;0.00;99.90;;;;;;5047082;28;20279;-81
2024/01/22 05:00:00;;;;;;;0.80;0.80;;;0.00;99.90;;;;;;5059506;28;20184;-82
2024/01/22 05:02:28;;;;;;;0.90;0.90;;;0.00;96.60;;;;;;5057984;28;20285;-82
2024/01/22 05:04:56;;;;;;;0.80;0.80;;;-0.10;99.90;;;;;;5057407;28;20167;-82
2024/01/22 05:07:23;;;;;;;0.90;0.90;;;-0.10;99.90;;;;;;5057248;28;20210;-82
2024/01/22 05:09:49;;;;;;;0.90;0.90;;;0.00;99.90;;;;;;5056906;28;20182;-83
2024/01/22 05:12:15;;;;;;;1.00;1.00;;;0.10;99.90;;;;;;5058026;28;20171;-83
2024/01/22 05:14:40;;;;;;;1.00;1.00;;;0.20;99.90;;;;;;5041008;28;20179;-83
2024/01/22 05:17:07;;;;;;;0.80;0.80;;;0.30;99.90;;;;;;5050457;28;20206;-80
2024/01/22 05:19:33;;;;;;;0.90;0.90;;;0.20;80.80;;;;;;5075442;28;20187;-79
2024/01/22 05:21:58;;;;;;;0.90;0.90;;;0.00;1.00;;;;;;5064816;28;20276;-83
2024/01/22 05:24:24;;;;;;;0.90;0.90;;;-0.10;99.90;;;;;;5057002;28;20656;-83
2024/01/22 05:26:49;;;;;;;0.90;0.90;;;-0.10;99.90;;;;;;5061666;28;20564;-83
2024/01/22 05:29:16;;;;;;;0.90;0.90;;;0.00;99.90;;;;;;5062590;28;20187;-84
2024/01/22 05:31:42;;;;;;;1.00;1.00;;;0.00;99.90;;;;;;5061157;28;20241;-81
2024/01/22 05:34:07;;;;;;;0.90;0.90;;;0.00;99.90;;;;;;5042812;28;20183;-83
2024/01/22 05:36:34;;;;;;;0.90;0.90;;;0.10;99.90;;;;;;5060960;28;20206;-84
2024/01/22 05:38:59;;;;;;;0.90;0.90;;;0.20;99.90;;;;;;5062096;28;20210;-84
2024/01/22 05:41:25;;;;;;;0.90;0.90;;;0.20;99.90;;;;;;5061832;28;20214;-83
2024/01/22 05:43:51;;;;;;;0.90;0.90;;;0.20;99.90;;;;;;5062981;28;20167;-84
2024/01/22 05:46:16;;;;;;;0.90;0.90;;;0.30;99.90;;;;;;5061211;28;20202;-84
2024/01/22 05:48:43;;;;;;;1.00;1.00;;;0.30;99.90;;;;;;5062116;28;20175;-83
2024/01/22 05:51:10;;;;;;;0.80;0.80;;;0.30;99.90;;;;;;5065908;28;20665;-83
2024/01/22 05:53:37;;;;;;;0.90;0.90;;;0.30;99.90;;;;;;5061900;28;20171;-84
2024/01/22 05:56:03;;;;;;;0.90;0.90;;;0.30;99.90;;;;;;5063342;28;20202;-84
2024/01/22 05:58:32;;;;;;;0.90;0.90;;;0.30;99.90;;;;;;5062805;28;20175;-83
2024/01/22 06:00:57;;;;;;;0.90;0.90;;;0.30;99.90;;;;;;5062763;28;20649;-83
2024/01/22 06:03:23;;;;;;;0.90;0.90;;;0.40;99.90;;;;;;5062874;28;20175;-82
2024/01/22 06:05:48;;;;;;;0.90;0.90;;;0.50;99.90;;;;;;5061572;28;20171;-82
2024/01/22 06:08:14;;;;;;;1.00;1.00;;;0.40;99.90;;;;;;5062823;28;20266;-81
2024/01/22 06:10:42;;;;;;;0.90;0.90;;;0.50;99.90;;;;;;5061941;28;20171;-82
2024/01/22 06:13:08;;;;;;;0.80;0.80;;;0.50;99.90;;;;;;5062292;28;20179;-82
2024/01/22 06:15:34;;;;;;;0.90;0.90;;;0.60;99.90;;;;;;5064788;28;20238;-82
2024/01/22 06:17:59;;;;;;;0.90;0.90;;;0.50;99.90;;;;;;5061002;28;20270;-82
2024/01/22 06:20:25;;;;;;;0.80;0.80;;;0.50;99.90;;;;;;5062041;28;20175;-82
2024/01/22 06:22:50;;;;;;;0.80;0.80;;;0.60;99.90;;;;;;5062256;28;20211;-81
2024/01/22 06:25:16;;;;;;;1.00;1.00;;;0.60;99.90;;;;;;5045247;28;20175;-81
2024/01/22 06:27:44;;;;;;;0.80;0.80;;;0.70;99.90;;;;;;5070332;28;20195;-80
2024/01/22 06:30:12;;;;;;;1.00;1.00;;;0.70;99.90;;;;;;5073985;28;20171;-80
2024/01/22 06:32:39;;;;;;;1.00;1.00;;;0.80;99.90;;;;;;5074350;28;20182;-79
2024/01/22 06:35:05;;;;;;;0.80;0.80;;;0.80;99.90;;;;;;5078912;28;20183;-79
2024/01/22 06:37:33;;;;;;;0.80;0.80;;;0.80;1.00;;;;;;5075448;28;20210;-77
2024/01/22 06:40:00;;;;;;;0.90;0.90;;;0.80;1.00;;;;;;5077581;28;20186;-80
2024/01/22 06:42:26;;;;;;;0.80;0.80;;;0.80;1.00;;;;;;5046218;28;20256;-82
2024/01/22 06:44:51;;;;;;;0.90;0.90;;;0.90;99.90;;;;;;5063916;28;20175;-82
2024/01/22 06:47:17;;;;;;;0.90;0.90;;;1.00;99.90;;;;;;5059176;28;20191;-81
2024/01/22 06:49:42;;;;;;;0.90;0.90;;;1.20;1.00;;;;;;5058637;28;20202;-81
2024/01/22 06:52:08;;;;;;;1.00;1.00;;;1.20;1.00;;;;;;5059343;28;20611;-82
2024/01/22 06:54:34;;;;;;;0.90;0.90;;;1.20;1.00;;;;;;5055655;28;20175;-82
2024/01/22 06:57:00;;;;;;;0.90;0.90;;;1.20;19.90;;;;;;5058781;28;20203;-79
2024/01/22 06:59:25;;;;;;;0.97;0.97;;;1.30;99.90;;;;;;5061829;28;20194;-83
2024/01/22 07:01:52;;;;;;;0.90;0.90;;;1.30;23.70;;;;;;5051642;28;20203;-82
2024/01/22 07:04:17;;;;;;;1.00;1.00;;;1.30;1.00;;;;;;5042955;28;20175;-83
2024/01/22 07:06:43;;;;;;;0.80;0.80;;;1.30;1.00;;;;;;5059189;28;20197;-79
2024/01/22 07:09:10;;;;;;;0.90;0.90;;;1.30;1.00;;;;;;5070165;28;20168;-80
2024/01/22 07:11:35;;;;;;;0.90;0.90;;;1.40;1.00;;;;;;5055049;28;20206;-80
2024/01/22 07:14:01;;;;;;;1.00;1.00;;;1.40;99.90;;;;;;5066842;28;20265;-81
2024/01/22 07:16:26;;;;;;;1.00;1.00;;;1.50;99.90;;;;;;5061665;28;20203;-80
2024/01/22 07:18:52;;;;;;;0.93;0.93;;;1.60;99.90;;;;;;5059202;28;20179;-81
2024/01/22 07:21:19;;;;;;;0.80;0.80;;;1.60;1.00;;;;;;5056208;28;20195;-81
2024/01/22 07:23:45;;;;;;;0.90;0.90;;;1.70;1.00;;;;;;5058571;28;20575;-82
2024/01/22 07:26:11;;;;;;;1.00;1.00;;;1.60;1.00;;;;;;5057712;28;20203;-81
2024/01/22 07:28:36;;;;;;;0.90;0.90;;;1.60;1.00;;;;;;5056429;28;20224;-82
2024/01/22 07:31:02;;;;;;;0.90;0.90;;;1.70;1.00;;;;;;5059120;28;20193;-78
2024/01/22 07:33:27;;;;;;;0.83;0.83;;;1.90;1.00;;;;;;5055656;28;20186;-81
2024/01/22 07:35:54;;;;;;;0.80;0.80;;;2.30;1.00;;;;;;5057207;28;20547;-82
2024/01/22 07:38:19;;;;;;;1.00;1.00;;;2.50;99.90;;;;;;5039397;28;20186;-81
2024/01/22 07:40:46;;;;;;;0.90;0.90;;;2.50;1.00;;;;;;5058924;28;20280;-82
2024/01/22 07:43:11;;;;;;;1.00;1.00;;;2.60;1.00;;;;;;5058784;28;20237;-82
2024/01/22 07:45:37;;;;;;;0.90;0.90;;;2.80;99.90;;;;;;5061519;28;20247;-82
2024/01/22 07:48:03;;;;;;;0.90;0.90;;;3.00;99.90;;;;;;5057909;28;20230;-82
2024/01/22 07:50:28;;;;;;;1.00;1.00;;;3.10;15.80;;;;;;5058897;28;20321;-80
2024/01/22 07:52:54;;;;;;;1.00;1.00;;;3.20;1.00;;;;;;5065522;28;20179;-81
2024/01/22 07:55:19;;;;;;;0.80;0.80;;;3.20;1.00;;;;;;5058627;28;20179;-83
2024/01/22 07:57:46;;;;;;;0.97;0.97;;;3.00;99.90;;;;;;5058303;28;20613;-83
2024/01/22 08:00:12;;;;;;;0.90;0.90;;;2.70;1.00;;;;;;5061861;28;20202;-83
2024/01/22 08:02:41;;;;;;;0.90;0.90;;;2.80;1.00;;;;;;5070393;28;20229;-81
2024/01/22 08:05:07;;;;;;;0.80;0.80;;;3.10;62.60;;;;;;5075768;28;20168;-79
2024/01/22 08:07:33;;;;;;;0.90;0.90;;;3.40;99.90;;;;;;5075454;28;20275;-87
2024/01/22 08:10:09;;;;;;;0.90;0.90;;;3.60;1.00;;;;;;5126761;27;20558;-83
2024/01/22 08:12:34;;;;;;;0.80;0.80;;;3.90;1.00;;;;;;5100434;28;20177;-84
2024/01/22 08:15:00;;;;;;;0.80;0.80;;;4.30;1.00;;;;;;5108397;28;20177;-83
2024/01/22 08:17:27;;;;;;;0.80;0.80;;;4.60;99.90;;;;;;5096339;28;20202;-84
2024/01/22 08:19:52;;;;;;;0.80;0.80;;;4.70;99.90;;;;;;5097117;28;20161;-83
2024/01/22 08:22:18;;;;;;;0.90;0.90;;;4.90;99.90;;;;;;5096440;28;20173;-82
2024/01/22 08:24:43;;;;;;;0.70;0.70;;;5.40;99.90;;;;;;5103257;28;20189;-84
2024/01/22 08:27:09;;;;;;;0.80;0.80;;;5.30;99.90;;;;;;5097410;28;20198;-84
2024/01/22 08:29:35;;;;;;;0.80;0.80;;;5.50;88.30;;;;;;5095642;28;20209;-84
2024/01/22 08:32:05;;;;;;;0.70;0.70;;;5.60;61.30;;;;;;5096291;28;20169;-82
2024/01/22 08:34:34;;;;;;;0.80;0.80;;;5.70;17.80;;;;;;5096169;28;20174;-84
2024/01/22 08:37:00;;;;;;;0.70;0.70;;;5.90;72.70;;;;;;5075438;28;20635;-82
2024/01/22 08:39:25;;;;;;;0.80;0.80;;;6.10;28.70;;;;;;5095680;28;20181;-83
2024/01/22 08:41:51;;;;;;;0.80;0.80;;;6.20;1.00;;;;;;5096690;28;20593;-82
2024/01/22 08:44:18;;;;;;;0.80;0.80;;;6.20;1.00;;;;;;5086542;28;20178;-82
2024/01/22 08:46:44;;;;;;;0.90;0.90;;;6.30;1.00;;;;;;5096664;28;20190;-81
2024/01/22 08:49:10;;;;;;;0.70;0.70;;;6.40;1.00;;;;;;5096647;28;20201;-83
2024/01/22 08:51:35;;;;;;;0.80;0.80;;;6.50;1.00;;;;;;5096778;28;20170;-84
2024/01/22 08:54:01;;;;;;;0.70;0.70;;;6.60;5.30;;;;;;5097645;28;20203;-83
2024/01/22 08:56:26;;;;;;;0.70;0.70;;;6.60;35.40;;;;;;5105571;28;20224;-81
2024/01/22 08:58:52;;;;;;;0.70;0.70;;;6.70;59.30;;;;;;5103172;28;20245;-82
2024/01/22 09:01:18;;;;;;;0.70;0.70;;;6.80;91.20;;;;;;5103751;28;20176;-78
2024/01/22 09:03:45;;;;;;;0.73;0.73;;;6.80;99.90;;;;;;5113414;28;20441;-82
2024/01/22 09:06:11;;;;;;;0.70;0.70;;;7.00;99.90;;;;;;5128912;28;20264;-81
2024/01/22 09:08:36;;;;;;;0.70;0.70;;;6.80;99.90;;;;;;5115527;28;20206;-82
2024/01/22 09:11:02;;;;;;;0.70;0.70;;;6.90;99.90;;;;;;5129073;28;20181;-82
2024/01/22 09:13:29;;;;;;;0.77;0.77;;;6.90;99.90;;;;;;5133283;28;20181;-85
2024/01/22 09:15:55;;;;;;;0.70;0.70;;;7.00;99.90;;;;;;5118859;27;20675;-85
2024/01/22 09:18:20;;;;;;;0.70;0.70;;;7.10;99.90;;;;;;5098140;28;20189;-85
2024/01/22 09:20:46;;;;;;;0.70;0.70;;;7.10;99.90;;;;;;5086044;28;20186;-86
2024/01/22 09:23:11;;;;;;;0.70;0.70;;;7.20;99.90;;;;;;5078910;28;20667;-85
2024/01/22 09:25:39;;;;;;;0.70;0.70;;;7.40;99.90;;;;;;5079255;28;20175;-86
2024/01/22 09:28:05;;;;;;;0.70;0.70;;;7.50;99.90;;;;;;5079726;28;20277;-85
2024/01/22 09:30:30;;;;;;;0.80;0.80;;;7.70;99.90;;;;;;5079383;28;20213;-87
2024/01/22 09:32:58;;;;;;;0.70;0.70;;;7.90;99.90;;;;;;5079551;28;20181;-85
2024/01/22 09:35:23;;;;;;;0.70;0.70;;;8.10;99.90;;;;;;5080590;28;20170;-85
2024/01/22 09:37:49;;;;;;;0.70;0.70;;;8.20;99.90;;;;;;5083963;28;20193;-84
2024/01/22 09:40:15;;;;;;;0.80;0.80;;;8.30;99.90;;;;;;5064815;28;20196;-86
2024/01/22 09:42:42;;;;;;;0.80;0.80;;;8.40;99.90;;;;;;5092157;28;20175;-84
2024/01/22 09:45:08;;;;;;;0.80;0.80;;;8.60;99.90;;;;;;5060465;28;20229;-86
2024/01/22 09:47:37;;;;;;;0.70;0.70;;;8.70;99.90;;;;;;5076658;28;20194;-86
2024/01/22 09:50:03;;;;;;;0.70;0.70;;;8.80;99.90;;;;;;5076836;28;20240;-86
2024/01/22 09:52:32;;;;;;;0.60;0.60;;;8.90;99.90;;;;;;5076208;28;20191;-86
2024/01/22 09:54:58;;;;;;;0.70;0.70;;;9.10;99.90;;;;;;5080561;28;20371;-85
2024/01/22 09:57:27;;;;;;;0.73;0.73;;;9.20;99.90;;;;;;5061541;28;20191;-85
2024/01/22 09:59:54;;;;;;;0.70;0.70;;;9.20;99.90;;;;;;5081794;28;20326;-87
2024/01/22 10:02:20;;;;;;;0.80;0.80;;;9.20;99.90;;;;;;5081525;28;20655;-85
2024/01/22 10:04:45;;;;;;;0.60;0.60;;;9.20;99.90;;;;;;5059582;28;20659;-85
2024/01/22 10:07:14;;;;;;;0.63;0.63;;;9.20;99.90;;;;;;5059224;28;20240;-86
2024/01/22 10:09:41;;;;;;;0.70;0.70;;;9.70;99.90;;;;;;5061138;28;20217;-86
2024/01/22 10:12:07;;;;;;;0.60;0.60;;;9.10;99.90;;;;;;5076812;28;20643;-86
2024/01/22 10:14:41;;;;;;;0.63;0.63;;;9.10;99.90;;;;;;5075600;28;20575;-86
2024/01/22 10:17:21;;;;;;;0.70;0.70;;;9.10;99.90;;;;;;5075846;28;20683;-86
2024/01/22 10:19:49;;;;;;;0.60;0.60;;;9.20;1.00;;;;;;5082351;28;20174;-85
2024/01/22 10:22:19;;;;;;;0.70;0.70;;;9.30;1.00;;;;;;5072016;28;20171;-87
2024/01/22 10:25:00;;;;;;;0.60;0.60;;;9.40;99.90;;;;;;5078251;28;20190;-87
2024/01/22 10:27:26;;;;;;;0.60;0.60;;;9.50;99.90;;;;;;5056737;28;20228;-88
2024/01/22 10:29:52;;;;;;;0.70;0.70;;;9.60;1.00;;;;;;5075164;28;20206;-88
2024/01/22 10:32:21;;;;;;;0.60;0.60;;;9.70;1.00;;;;;;5072607;28;20191;-86
2024/01/22 10:34:56;;;;;;;0.60;0.60;;;9.80;1.00;;;;;;5078098;28;20186;-89
2024/01/22 10:37:22;;;;;;;0.60;0.60;;;9.90;1.00;;;;;;5082001;28;20254;-88
2024/01/22 10:40:01;;;;;;;0.60;0.60;;;9.90;1.00;;;;;;5079102;28;20174;-88
2024/01/22 10:42:26;;;;;;;0.60;0.60;;;10.00;99.90;;;;;;5091748;28;20196;-87
2024/01/22 10:44:53;;;;;;;0.60;0.60;;;10.10;99.90;;;;;;5075738;28;20182;-86
2024/01/22 10:47:19;;;;;;;0.50;0.50;;;10.20;99.90;;;;;;5094806;28;20217;-88
2024/01/22 10:49:46;;;;;;;0.60;0.60;;;10.40;99.90;;;;;;5079676;28;20210;-87
2024/01/22 10:52:13;;;;;;;0.50;0.50;;;10.40;99.90;;;;;;5090470;28;20206;-87
2024/01/22 10:54:40;;;;;;;0.63;0.63;;;10.40;99.90;;;;;;5095162;28;20230;-84
2024/01/22 10:57:11;;;;;;;0.70;0.70;;;10.50;99.90;;;;;;5078556;28;20201;-89
2024/01/22 10:59:38;;;;;;;0.50;0.50;;;10.50;99.90;;;;;;5083040;28;20179;-86
2024/01/22 11:02:06;;;;;;;0.60;0.60;;;10.50;99.90;;;;;;5081369;28;20198;-86
2024/01/22 11:04:43;;;;;;;0.50;0.50;;;10.60;99.90;;;;;;5074330;28;20830;-87
2024/01/22 11:07:11;;;;;;;0.60;0.60;;;10.60;1.00;;;;;;5075242;28;20201;-87
2024/01/22 11:09:37;;;;;;;0.50;0.50;;;10.70;1.00;;;;;;5082222;28;20257;-85
2024/01/22 11:12:13;;;;;;;0.50;0.50;;;10.70;1.00;;;;;;5075169;28;20190;-88
2024/01/22 11:14:40;;;;;;;0.60;0.60;;;10.70;1.00;;;;;;5090911;28;20193;-86
2024/01/22 11:17:06;;;;;;;0.60;0.60;;;10.80;1.00;;;;;;5074505;28;20198;-85
2024/01/22 11:19:33;;;;;;;0.50;0.50;;;11.10;1.00;;;;;;5076018;28;20178;-83
2024/01/22 11:22:09;;;;;;;0.50;0.50;;;11.00;1.00;;;;;;5073086;28;20179;-84
2024/01/22 11:24:34;;;;;;;0.57;0.57;;;11.00;1.00;;;;;;5052123;28;20284;-87
2024/01/22 11:27:04;;;;;;;0.50;0.50;;;11.20;1.00;;;;;;5077491;28;20217;-83
2024/01/22 11:29:32;;;;;;;0.60;0.60;;;11.30;1.00;;;;;;5076873;28;20210;-82
2024/01/22 11:32:24;;;;;;;0.47;0.47;;;11.40;1.00;;;;;;5081497;28;20187;-81
2024/01/22 11:34:51;;;;;;;0.50;0.50;;;11.50;99.90;;;;;;5073312;28;20187;-82
2024/01/22 11:37:36;;;;;;;0.50;0.50;;;11.50;99.90;;;;;;5080592;28;20232;-82
2024/01/22 11:40:03;;;;;;;0.60;0.60;;;11.50;99.90;;;;;;5074505;28;20209;-81
2024/01/22 11:42:30;;;;;;;0.60;0.60;;;11.40;99.90;;;;;;5047232;28;20194;-84
2024/01/22 11:44:58;;;;;;;0.53;0.53;;;11.40;1.00;;;;;;5040104;28;20179;-85
2024/01/22 11:47:25;;;;;;;0.70;0.70;;;11.40;1.00;;;;;;5084978;28;20183;-85
2024/01/22 11:50:01;;;;;;;0.50;0.50;;;11.30;99.90;;;;;;5075686;28;20261;-81
2024/01/22 11:52:27;;;;;;;0.67;0.67;;;11.30;99.90;;;;;;5077891;28;20171;-84
2024/01/22 11:55:01;;;;;;;0.70;0.70;;;11.20;1.00;;;;;;5077180;28;20265;-84
2024/01/22 11:57:31;;;;;;;0.47;0.47;;;11.20;99.90;;;;;;5077612;28;20232;-84
2024/01/22 12:00:19;;;;;;;0.60;0.60;;;11.30;99.90;;;;;;5078444;28;20167;-85
2024/01/22 12:02:46;;;;;;;0.50;0.50;;;11.30;99.90;;;;;;5078448;28;20170;-84
2024/01/22 12:05:14;;;;;;;0.60;0.60;;;11.30;99.90;;;;;;5077562;28;20171;-83
2024/01/22 12:07:41;;;;;;;0.53;0.53;;;11.30;99.90;;;;;;5059354;28;20190;-85
2024/01/22 12:10:26;;;;;;;0.50;0.50;;;11.50;41.20;;;;;;5077758;28;20240;-85
2024/01/22 12:12:56;;;;;;;0.60;0.60;;;11.30;29.20;;;;;;5081735;28;20166;-85
2024/01/22 12:15:23;;;;;;;0.53;0.53;;;11.20;1.00;;;;;;5078723;28;20205;-86
2024/01/22 12:17:50;;;;;;;0.50;0.50;;;11.30;1.00;;;;;;5079495;28;20655;-84
2024/01/22 12:20:17;;;;;;;0.60;0.60;;;11.20;1.00;;;;;;5085161;28;20175;-84
2024/01/22 12:22:43;;;;;;;0.60;0.60;;;11.20;1.00;;;;;;5088242;28;20178;-85
2024/01/22 12:25:11;;;;;;;0.50;0.50;;;11.20;1.00;;;;;;5084964;28;20301;-84
2024/01/22 12:27:37;;;;;;;0.60;0.60;;;11.20;1.00;;;;;;5084701;28;20254;-84
2024/01/22 12:30:14;;;;;;;0.50;0.50;;;11.20;1.00;;;;;;5098488;28;20201;-83
2024/01/22 12:32:49;;;;;;;0.50;0.50;;;11.10;96.40;;;;;;5090934;28;20800;-83
2024/01/22 12:35:15;;;;;;;0.50;0.50;;;11.10;59.30;;;;;;5078776;28;20171;-83
2024/01/22 12:37:40;;;;;;;0.60;0.60;;;11.10;99.90;;;;;;5093497;28;20288;-86
2024/01/22 12:40:09;;;;;;;0.60;0.60;;;11.10;80.90;;;;;;5089812;28;20185;-85
2024/01/22 12:42:51;;;;;;;0.70;0.70;;;11.20;99.90;;;;;;5090896;28;20180;-83
2024/01/22 12:45:23;;;;;;;0.50;0.50;;;11.20;99.90;;;;;;5083339;28;20235;-85
2024/01/22 12:47:49;;;;;;;0.60;0.60;;;11.20;99.90;;;;;;5083094;28;20225;-86
2024/01/22 12:50:19;;;;;;;0.57;0.57;;;11.10;99.90;;;;;;5094868;28;20186;-85
2024/01/22 12:52:46;;;;;;;0.50;0.50;;;11.30;1.00;;;;;;5087257;28;20174;-86